首页
METAR-TAF:

METAR-TAF

机场 :

Bluefields, 尼加拉瓜

纬度: 12-00N, 经度: 083-46W, 海拔: 5米

当前天气观测

该预报发布于4小时和10分钟前的23:00 UTC
风速4节,风向东南
温度 30°C
湿度 84%
气压 1009 hPa
能见度10公里或以上
散云层高于1900英尺

METAR: MNBL 242300Z 14004KT 9999 SCT019 30/27 Q1009

时间: 21:10 (03:10 UTC)

预报

该预报发布于6小时和10分钟前的21:00 UTC
预报有效从25日的 00点(UTC)到 25日的 24点(UTC)
风速8节,风向
能见度10公里或以上
散云层高于1700英尺
散云层高于6000英尺
短暂存在
从 25日的 02点(UTC)到 25日的 09点(UTC)
能見度: 7000
多云层高于1700英尺
成为
从 25日的 14点(UTC)到 25日的 16点(UTC)
风速10节,风向东转东南
多云层高于1800英尺

TAF: MNBL 242100Z 2500/2524 09008KT 9999 SCT017 SCT060 TEMPO 2502/2509 7000 RA BKN017 BECMG 2514/2516 11010KT BKN018

超过4000个机场的气象观测和天气预报(METAR&TAF报告)。

可查询的气象台以黄色和红色小点在地图上表示。

将鼠标移到小点上方,可查看气象台名称。

然后点击查看天气观测和预报。

如需切换地图:点击带黑十字的绿色按钮放大地图;点击带横线的绿色按钮缩小地图;或者点击绿色箭头查看邻近地区的地图。


METAR-TAF: